Ashland, Kentucky
Current Conditions -  °F | °C
As of 2:55 AM on Monday 24 Nov 2014 (Local Time) from KDWU Reporting Station
Overcast Overcast  
Wind Chill: 63°   Ceiling: 2600
Heat Index: 63°   Visibility: 10mi
Dew Point: 52°   Wind: 14mph
Humidity: 68%   Direction: 230°SW
Pressure: 29.43"   Gusts: 21mph
Location:  38.48°N, 82.64°W
Report Text: KDWU 240755Z AUTO 23012G18KT 220V280 10SM BKN026 OVC033 17/11 A2943 RMK AO1
Loading
Personal Weather Stations






























Interactive Weather Map New forecast layout! Learn more

10-Day Weather Forecast

Advertisements
Track Severe Weather on mobile